Time;durP1;ratioP1;P1;durP2;ratioP2;P2;SDS_P1;SDS_P2;PMS_P1;PMS_P2;Temp;Humidity;BMP_temperature;BMP_pressure;BME280_temperature;BME280_humidity;BME280_pressure;Samples;Min_cycle;Max_cycle;Signal;HPM_P1;HPM_P2
2023/09/27 00:01:34;;;;;;;;;;;;;;;17.37;91.96;101362.93;108000;275;113833;-55
2023/09/27 00:04:07;;;;;;;;;;;;;;;17.37;91.88;101362.05;107907;275;95984;-53
2023/09/27 00:06:43;;;;;;;;;;;;;;;17.35;92.02;101361.21;107948;275;96358;-56
2023/09/27 00:09:23;;;;;;;;;;;;;;;17.33;91.91;101361.67;107907;275;119830;-56
2023/09/27 00:11:57;;;;;;;;;;;;;;;17.30;91.59;101362.90;107992;275;104684;-59
2023/09/27 00:14:39;;;;;;;;;;;;;;;17.24;91.52;101364.89;108006;275;115012;-60
2023/09/27 00:17:16;;;;;;;;;;;;;;;17.21;91.53;101361.37;107498;275;98133;-55
2023/09/27 00:19:50;;;;;;;;;;;;;;;17.19;91.57;101360.66;107891;275;97487;-56
2023/09/27 00:22:27;;;;;;;;;;;;;;;17.17;91.53;101361.55;107973;275;121172;-58
2023/09/27 00:25:05;;;;;;;;;;;;;;;17.12;91.49;101361.62;107966;275;104291;-56
2023/09/27 00:27:37;;;;;;;;;;;;;;;17.08;91.37;101362.04;108010;275;115598;-60
2023/09/27 00:30:13;;;;;;;;;;;;;;;17.03;91.38;101356.27;108010;275;96257;-56
2023/09/27 00:32:50;;;;;;;;;;;;;;;17.00;91.37;101354.21;107978;275;96692;-55
2023/09/27 00:35:31;;;;;;;;;;;;;;;16.98;91.48;101353.54;107937;275;121946;-55
2023/09/27 00:38:06;;;;;;;;;;;;;;;16.96;91.48;101351.98;108016;275;106041;-55
2023/09/27 00:40:44;;;;;;;;;;;;;;;16.98;91.41;101351.39;107982;275;114708;-57
2023/09/27 00:43:31;;;;;;;;;;;;;;;16.92;91.38;101349.46;107906;275;97582;-58
2023/09/27 00:46:09;;;;;;;;;;;;;;;16.88;91.28;101350.36;107946;275;96832;-55
2023/09/27 00:48:40;;;;;;;;;;;;;;;16.86;91.32;101347.00;107910;275;120251;-54
2023/09/27 00:51:11;;;;;;;;;;;;;;;16.85;91.51;101343.48;108001;275;103853;-59
2023/09/27 00:53:42;;;;;;;;;;;;;;;16.84;91.51;101345.41;108062;275;115309;-60
2023/09/27 00:56:13;;;;;;;;;;;;;;;16.82;91.53;101342.84;108030;275;96085;-54
2023/09/27 00:58:51;;;;;;;;;;;;;;;16.81;91.57;101341.12;107963;275;97313;-55
2023/09/27 01:01:26;;;;;;;;;;;;;;;16.78;91.48;101338.30;107898;275;120923;-56
2023/09/27 01:04:01;;;;;;;;;;;;;;;16.70;91.42;101331.95;107994;275;105471;-55
2023/09/27 01:06:37;;;;;;;;;;;;;;;16.65;91.47;101330.89;107967;275;115045;-54
2023/09/27 01:09:12;;;;;;;;;;;;;;;16.59;91.27;101331.26;108000;275;97094;-54
2023/09/27 01:11:52;;;;;;;;;;;;;;;16.56;91.55;101329.23;107956;275;98621;-60
2023/09/27 01:14:29;;;;;;;;;;;;;;;16.57;91.69;101330.11;108037;275;121173;-60
2023/09/27 01:17:09;;;;;;;;;;;;;;;16.58;91.70;101327.42;107936;275;104613;-56
2023/09/27 01:19:44;;;;;;;;;;;;;;;16.57;91.62;101323.89;107997;275;114850;-56
2023/09/27 01:22:18;;;;;;;;;;;;;;;16.55;91.76;101325.38;107896;275;97162;-56
2023/09/27 01:24:57;;;;;;;;;;;;;;;16.50;91.63;101325.60;107967;275;97842;-57
2023/09/27 01:27:31;;;;;;;;;;;;;;;16.46;91.67;101322.75;107510;275;120883;-56
2023/09/27 01:30:06;;;;;;;;;;;;;;;16.46;91.94;101321.35;107956;275;106183;-57
2023/09/27 01:32:43;;;;;;;;;;;;;;;16.48;92.13;101318.64;108063;275;113814;-59
2023/09/27 01:35:14;;;;;;;;;;;;;;;16.54;92.31;101321.39;108021;275;95313;-58
2023/09/27 01:37:54;;;;;;;;;;;;;;;16.55;92.31;101319.83;107956;275;95965;-59
2023/09/27 01:40:31;;;;;;;;;;;;;;;16.56;92.46;101318.57;107908;275;121186;-55
2023/09/27 01:43:04;;;;;;;;;;;;;;;16.58;92.47;101316.81;107919;275;105618;-55
2023/09/27 01:45:34;;;;;;;;;;;;;;;16.57;92.44;101315.92;107913;275;114110;-56
2023/09/27 01:48:05;;;;;;;;;;;;;;;16.56;92.61;101316.02;107951;275;95366;-56
2023/09/27 01:50:42;;;;;;;;;;;;;;;16.58;92.74;101312.81;107952;275;97201;-60
2023/09/27 01:53:17;;;;;;;;;;;;;;;16.55;92.50;101312.71;107919;275;121021;-58
2023/09/27 01:55:48;;;;;;;;;;;;;;;16.49;92.45;101315.08;107979;275;105105;-55
2023/09/27 01:58:24;;;;;;;;;;;;;;;16.39;92.32;101311.98;107935;275;114062;-55
2023/09/27 02:01:05;;;;;;;;;;;;;;;16.27;92.27;101312.27;107953;275;96661;-59
2023/09/27 02:03:45;;;;;;;;;;;;;;;16.13;92.23;101311.08;107932;275;96714;-59
2023/09/27 02:06:22;;;;;;;;;;;;;;;16.01;92.25;101311.24;107978;275;120685;-55
2023/09/27 02:09:03;;;;;;;;;;;;;;;15.92;92.29;101306.59;107961;275;105144;-56
2023/09/27 02:11:42;;;;;;;;;;;;;;;15.81;92.29;101308.58;107980;275;113967;-60
2023/09/27 02:14:20;;;;;;;;;;;;;;;15.71;92.25;101308.85;107958;275;95781;-60
2023/09/27 02:16:55;;;;;;;;;;;;;;;15.61;92.48;101306.91;107873;275;97275;-56
2023/09/27 02:19:29;;;;;;;;;;;;;;;15.54;92.46;101303.80;107753;272;120110;-57
2023/09/27 02:22:08;;;;;;;;;;;;;;;15.47;92.40;101303.28;107666;275;105659;-56
2023/09/27 02:24:41;;;;;;;;;;;;;;;15.37;92.64;101307.59;107682;277;113798;-56
2023/09/27 02:27:20;;;;;;;;;;;;;;;15.31;92.66;101307.00;107639;275;95806;-59
2023/09/27 02:30:01;;;;;;;;;;;;;;;15.25;92.86;101304.83;107612;275;97567;-58
2023/09/27 02:32:41;;;;;;;;;;;;;;;15.21;92.92;101307.18;107672;275;121469;-55
2023/09/27 02:35:19;;;;;;;;;;;;;;;15.18;93.03;101303.20;107673;275;105399;-59
2023/09/27 02:37:50;;;;;;;;;;;;;;;15.14;92.85;101301.46;107693;275;114390;-58
2023/09/27 02:40:29;;;;;;;;;;;;;;;15.08;92.78;101302.39;107675;275;95770;-59
2023/09/27 02:43:02;;;;;;;;;;;;;;;15.03;92.63;101307.39;107677;275;96831;-59
2023/09/27 02:45:35;;;;;;;;;;;;;;;14.96;92.65;101305.92;107660;275;120251;-56
2023/09/27 02:48:09;;;;;;;;;;;;;;;14.89;92.55;101302.09;107670;275;104902;-56
2023/09/27 02:50:47;;;;;;;;;;;;;;;14.79;92.48;101302.88;107689;275;114636;-55
2023/09/27 02:53:27;;;;;;;;;;;;;;;14.68;92.49;101305.29;107730;275;96339;-54
2023/09/27 02:56:04;;;;;;;;;;;;;;;14.60;92.72;101305.07;107728;275;98086;-59
2023/09/27 02:58:44;;;;;;;;;;;;;;;14.62;92.87;101308.70;107510;275;123142;-59
2023/09/27 03:01:21;;;;;;;;;;;;;;;14.59;92.91;101311.23;107695;275;105979;-54
2023/09/27 03:03:59;;;;;;;;;;;;;;;14.58;93.12;101312.07;107618;275;113938;-54
2023/09/27 03:06:35;;;;;;;;;;;;;;;14.55;93.13;101311.71;107703;275;97054;-60
2023/09/27 03:09:16;;;;;;;;;;;;;;;14.51;93.26;101315.30;107647;275;97908;-59
2023/09/27 03:11:50;;;;;;;;;;;;;;;14.45;93.36;101312.47;107720;275;118161;-56
2023/09/27 03:14:26;;;;;;;;;;;;;;;14.44;93.27;101315.12;107443;275;104721;-55
2023/09/27 03:17:02;;;;;;;;;;;;;;;14.41;93.59;101315.19;107710;275;114892;-55
2023/09/27 03:19:39;;;;;;;;;;;;;;;14.40;93.79;101319.85;107645;275;95664;-56
2023/09/27 03:22:17;;;;;;;;;;;;;;;14.34;93.72;101320.58;107661;275;97800;-59
2023/09/27 03:24:52;;;;;;;;;;;;;;;14.27;93.73;101319.63;107694;275;120556;-59
2023/09/27 03:27:32;;;;;;;;;;;;;;;14.19;93.39;101316.07;107677;275;105570;-55
2023/09/27 03:30:06;;;;;;;;;;;;;;;14.11;93.43;101311.79;107429;275;113269;-56
2023/09/27 03:32:41;;;;;;;;;;;;;;;14.06;93.28;101313.01;107684;275;96802;-57
2023/09/27 03:35:22;;;;;;;;;;;;;;;14.01;93.18;101311.11;107661;275;96536;-58
2023/09/27 03:37:59;;;;;;;;;;;;;;;13.92;93.07;101312.54;107674;275;118906;-57
2023/09/27 03:40:32;;;;;;;;;;;;;;;13.87;93.32;101314.72;107621;275;105676;-55
2023/09/27 03:43:09;;;;;;;;;;;;;;;13.83;93.27;101312.49;107730;275;114988;-55
2023/09/27 03:45:52;;;;;;;;;;;;;;;13.78;93.14;101312.48;107626;275;97769;-61
2023/09/27 03:48:26;;;;;;;;;;;;;;;13.71;93.22;101311.73;107709;275;96834;-60
2023/09/27 03:51:04;;;;;;;;;;;;;;;13.67;93.24;101306.70;107673;275;120458;-59
2023/09/27 03:53:37;;;;;;;;;;;;;;;13.62;93.10;101309.02;107679;275;105819;-59
2023/09/27 03:56:10;;;;;;;;;;;;;;;13.61;93.15;101309.34;107704;275;114255;-55
2023/09/27 03:58:42;;;;;;;;;;;;;;;13.58;93.27;101309.65;106983;275;637178;-55
2023/09/27 04:01:17;;;;;;;;;;;;;;;13.54;93.16;101309.08;107525;275;98959;-55
2023/09/27 04:03:54;;;;;;;;;;;;;;;13.50;93.17;101308.89;107662;275;121310;-55
2023/09/27 04:06:38;;;;;;;;;;;;;;;13.45;93.16;101305.92;107627;275;105260;-59
2023/09/27 04:09:17;;;;;;;;;;;;;;;13.41;93.36;101307.41;107670;275;113178;-59
2023/09/27 04:12:00;;;;;;;;;;;;;;;13.39;93.20;101308.64;107674;275;96306;-59
2023/09/27 04:14:33;;;;;;;;;;;;;;;13.35;93.30;101308.70;107652;275;97319;-59
2023/09/27 04:17:09;;;;;;;;;;;;;;;13.31;93.30;101314.23;107692;275;120297;-58
2023/09/27 04:19:42;;;;;;;;;;;;;;;13.25;93.42;101316.01;107663;275;104997;-58
2023/09/27 04:22:15;;;;;;;;;;;;;;;13.25;93.42;101317.42;107674;275;114135;-60
2023/09/27 04:24:54;;;;;;;;;;;;;;;13.25;93.37;101318.83;107690;275;97289;-59
2023/09/27 04:27:27;;;;;;;;;;;;;;;13.24;93.67;101318.26;107719;275;96966;-57
2023/09/27 04:30:07;;;;;;;;;;;;;;;13.22;93.78;101318.44;107696;275;121167;-58
2023/09/27 04:32:44;;;;;;;;;;;;;;;13.19;93.76;101319.76;107723;275;105893;-54
2023/09/27 04:35:17;;;;;;;;;;;;;;;13.15;93.65;101320.04;107647;275;114914;-56
2023/09/27 04:37:53;;;;;;;;;;;;;;;13.15;93.96;101315.68;107661;275;95887;-55
2023/09/27 04:40:29;;;;;;;;;;;;;;;13.22;94.30;101314.72;107728;275;97764;-54
2023/09/27 04:43:01;;;;;;;;;;;;;;;13.27;94.45;101318.26;107696;275;120838;-55
2023/09/27 04:45:33;;;;;;;;;;;;;;;13.34;94.50;101319.75;107572;275;108355;-59
2023/09/27 04:48:10;;;;;;;;;;;;;;;13.35;94.43;101319.34;107651;275;112075;-58
2023/09/27 04:50:40;;;;;;;;;;;;;;;13.42;94.60;101308.02;107478;275;95368;-57
2023/09/27 04:53:14;;;;;;;;;;;;;;;13.48;94.74;101310.88;107641;275;97407;-55
2023/09/27 04:55:48;;;;;;;;;;;;;;;13.59;94.92;101312.33;107654;275;120121;-59
2023/09/27 04:58:25;;;;;;;;;;;;;;;13.69;95.19;101317.11;107669;275;104803;-59
2023/09/27 05:01:00;;;;;;;;;;;;;;;13.83;95.67;101318.02;107619;275;115209;-59
2023/09/27 05:03:33;;;;;;;;;;;;;;;14.09;96.49;101320.08;107625;275;95393;-60
2023/09/27 05:06:14;;;;;;;;;;;;;;;14.27;96.49;101320.55;107682;275;97173;-55
2023/09/27 05:08:46;;;;;;;;;;;;;;;14.40;96.67;101322.58;107690;275;122261;-55
2023/09/27 05:11:17;;;;;;;;;;;;;;;14.50;96.58;101324.73;107677;275;105490;-60
2023/09/27 05:13:50;;;;;;;;;;;;;;;14.63;96.89;101324.89;107691;275;115613;-59
2023/09/27 05:16:25;;;;;;;;;;;;;;;14.78;97.14;101326.75;107712;275;97442;-55
2023/09/27 05:19:03;;;;;;;;;;;;;;;14.95;97.27;101329.34;107686;275;97843;-54
2023/09/27 05:21:38;;;;;;;;;;;;;;;15.07;97.24;101329.41;107692;275;120364;-56
2023/09/27 05:24:16;;;;;;;;;;;;;;;15.21;97.31;101329.16;107615;275;104676;-56
2023/09/27 05:26:59;;;;;;;;;;;;;;;15.34;97.13;101332.12;107502;275;113841;-59
2023/09/27 05:29:36;;;;;;;;;;;;;;;15.43;97.04;101332.84;107663;275;96375;-59
2023/09/27 05:32:11;;;;;;;;;;;;;;;15.55;97.26;101330.71;107751;275;97133;-55
2023/09/27 05:34:44;;;;;;;;;;;;;;;15.68;97.72;101331.68;107715;276;119669;-60
2023/09/27 05:37:18;;;;;;;;;;;;;;;16.10;97.89;101333.62;107720;275;106444;-56
2023/09/27 05:39:52;;;;;;;;;;;;;;;17.19;97.90;101332.66;107739;275;114273;-56
2023/09/27 05:42:24;;;;;;;;;;;;;;;18.33;96.57;101333.52;107696;275;96545;-56
2023/09/27 05:44:59;;;;;;;;;;;;;;;19.18;94.73;101332.02;107650;275;96133;-55
2023/09/27 05:47:37;;;;;;;;;;;;;;;19.21;93.07;101333.08;107672;275;119511;-55
2023/09/27 05:50:24;;;;;;;;;;;;;;;19.03;92.18;101335.58;107637;275;105284;-55
2023/09/27 05:52:54;;;;;;;;;;;;;;;18.86;91.54;101333.43;107662;275;113714;-56
2023/09/27 05:55:30;;;;;;;;;;;;;;;18.71;91.26;101337.02;107675;275;93789;-55
2023/09/27 05:58:04;;;;;;;;;;;;;;;18.60;91.21;101337.09;107751;275;98465;-54
2023/09/27 06:00:42;;;;;;;;;;;;;;;18.58;90.95;101332.94;107653;275;120684;-56
2023/09/27 06:03:20;;;;;;;;;;;;;;;18.52;90.78;101337.00;107432;275;105586;-56
2023/09/27 06:05:54;;;;;;;;;;;;;;;18.46;90.55;101335.66;107669;275;114653;-60
2023/09/27 06:08:29;;;;;;;;;;;;;;;18.42;90.49;101337.19;107727;275;96408;-60
2023/09/27 06:11:02;;;;;;;;;;;;;;;18.48;90.48;101341.35;107705;275;97930;-59
2023/09/27 06:13:37;;;;;;;;;;;;;;;18.41;90.26;101342.66;107682;275;118710;-58
2023/09/27 06:16:14;;;;;;;;;;;;;;;18.39;90.01;101344.44;107693;275;105065;-56
2023/09/27 06:18:53;;;;;;;;;;;;;;;18.34;90.03;101344.55;107704;275;113851;-55
2023/09/27 06:21:28;;;;;;;;;;;;;;;18.46;89.96;101346.90;107692;275;96445;-58
2023/09/27 06:24:05;;;;;;;;;;;;;;;18.55;89.84;101347.98;107691;275;98044;-57
2023/09/27 06:26:35;;;;;;;;;;;;;;;18.66;89.64;101347.11;107710;275;119502;-59
2023/09/27 06:29:06;;;;;;;;;;;;;;;18.74;89.51;101350.65;107523;275;106007;-58
2023/09/27 06:31:46;;;;;;;;;;;;;;;18.81;89.16;101355.33;107646;275;113503;-59
2023/09/27 06:34:26;;;;;;;;;;;;;;;18.88;88.87;101353.92;107661;275;94073;-58
2023/09/27 06:36:57;;;;;;;;;;;;;;;18.92;88.76;101355.93;107658;275;98055;-60
2023/09/27 06:39:32;;;;;;;;;;;;;;;18.94;88.66;101352.55;107638;275;118288;-58
2023/09/27 06:42:06;;;;;;;;;;;;;;;19.03;88.42;101352.86;107646;275;104620;-54
2023/09/27 06:44:42;;;;;;;;;;;;;;;19.15;87.88;101355.01;107627;277;113708;-54
2023/09/27 06:47:17;;;;;;;;;;;;;;;19.19;87.71;101356.45;107659;277;94302;-54
2023/09/27 06:49:52;;;;;;;;;;;;;;;19.28;87.86;101353.73;107677;275;97317;-54
2023/09/27 06:52:29;;;;;;;;;;;;;;;19.39;87.49;101356.72;107634;275;120874;-58
2023/09/27 06:55:12;;;;;;;;;;;;;;;19.44;87.06;101360.88;107707;275;106129;-56
2023/09/27 06:57:48;;;;;;;;;;;;;;;19.42;86.53;101360.52;107633;275;112747;-58
2023/09/27 07:00:24;;;;;;;;;;;;;;;19.50;86.43;101357.28;107653;275;94845;-59
2023/09/27 07:03:03;;;;;;;;;;;;;;;19.53;86.32;101356.84;107470;275;96375;-59
2023/09/27 07:05:35;;;;;;;;;;;;;;;19.63;86.08;101359.02;107684;275;120224;-59
2023/09/27 07:08:06;;;;;;;;;;;;;;;19.78;85.83;101352.42;107669;275;104950;-60
2023/09/27 07:10:44;;;;;;;;;;;;;;;19.86;85.41;101356.27;107640;275;115277;-55
2023/09/27 07:13:15;;;;;;;;;;;;;;;19.93;85.38;101349.55;107620;275;94460;-52
2023/09/27 07:15:49;;;;;;;;;;;;;;;20.02;84.44;101354.02;107706;275;98023;-56
2023/09/27 07:18:20;;;;;;;;;;;;;;;20.03;84.31;101354.75;107488;275;120154;-57
2023/09/27 07:20:55;;;;;;;;;;;;;;;20.10;84.33;101357.27;107646;275;103687;-54
2023/09/27 07:23:29;;;;;;;;;;;;;;;20.21;83.86;101361.61;107656;275;114984;-54
2023/09/27 07:26:05;;;;;;;;;;;;;;;20.29;83.51;101360.41;107682;275;94705;-58
2023/09/27 07:28:41;;;;;;;;;;;;;;;20.41;83.01;101361.67;107695;275;97662;-59
2023/09/27 07:31:14;;;;;;;;;;;;;;;20.47;82.84;101365.60;107663;275;119863;-55
2023/09/27 07:33:48;;;;;;;;;;;;;;;20.52;82.54;101371.17;107674;275;105809;-55
2023/09/27 07:36:24;;;;;;;;;;;;;;;20.73;82.24;101375.33;107674;275;113169;-58
2023/09/27 07:39:01;;;;;;;;;;;;;;;21.06;81.94;101376.08;107657;275;97295;-59
2023/09/27 07:41:35;;;;;;;;;;;;;;;21.41;81.58;101372.13;107701;275;97588;-55
2023/09/27 07:44:07;;;;;;;;;;;;;;;21.78;81.20;101373.52;107483;275;120584;-53
2023/09/27 07:46:51;;;;;;;;;;;;;;;22.22;80.91;101372.19;107657;275;103962;-59
2023/09/27 07:49:25;;;;;;;;;;;;;;;22.72;80.64;101375.52;107640;275;112903;-60
2023/09/27 07:51:57;;;;;;;;;;;;;;;23.58;79.86;101380.34;107485;275;93521;-54
2023/09/27 07:54:33;;;;;;;;;;;;;;;24.87;77.80;101376.10;107718;275;97087;-55
2023/09/27 07:57:11;;;;;;;;;;;;;;;26.07;75.77;101374.77;107628;275;121066;-54
2023/09/27 07:59:46;;;;;;;;;;;;;;;27.47;74.06;101380.09;107677;275;105951;-54
2023/09/27 08:02:16;;;;;;;;;;;;;;;28.74;71.91;101378.31;107671;275;113392;-58
2023/09/27 08:04:49;;;;;;;;;;;;;;;29.56;69.72;101376.70;107683;275;94825;-58
2023/09/27 08:07:29;;;;;;;;;;;;;;;30.38;67.59;101378.73;107676;275;97035;-56
2023/09/27 08:10:05;;;;;;;;;;;;;;;30.65;65.50;101378.89;107694;275;121147;-57
2023/09/27 08:12:44;;;;;;;;;;;;;;;30.97;63.88;101376.27;107662;275;106230;-55
2023/09/27 08:15:20;;;;;;;;;;;;;;;31.40;61.77;101379.42;107657;275;115727;-54
2023/09/27 08:17:57;;;;;;;;;;;;;;;31.38;59.92;101383.25;107481;275;94717;-55
2023/09/27 08:20:29;;;;;;;;;;;;;;;30.93;58.41;101380.79;107731;275;98261;-54
2023/09/27 08:23:03;;;;;;;;;;;;;;;30.18;58.05;101385.58;107689;275;120554;-54
2023/09/27 08:25:34;;;;;;;;;;;;;;;29.39;58.72;101384.73;107704;275;105036;-56
2023/09/27 08:28:09;;;;;;;;;;;;;;;29.09;59.57;101388.33;107626;275;114055;-56
2023/09/27 08:30:48;;;;;;;;;;;;;;;29.18;58.45;101388.27;107500;275;96407;-56
2023/09/27 08:33:23;;;;;;;;;;;;;;;28.85;58.00;101388.23;107672;275;95225;-56
2023/09/27 08:36:03;;;;;;;;;;;;;;;28.70;57.51;101388.44;107711;275;120408;-55
2023/09/27 08:38:41;;;;;;;;;;;;;;;28.44;58.17;101390.64;107706;275;104310;-54
2023/09/27 08:41:18;;;;;;;;;;;;;;;28.59;58.26;101392.30;107664;275;114565;-55
2023/09/27 08:43:59;;;;;;;;;;;;;;;28.84;57.40;101388.36;107697;275;94509;-55
2023/09/27 08:46:34;;;;;;;;;;;;;;;28.74;57.18;101392.27;107710;275;97686;-59
2023/09/27 08:49:11;;;;;;;;;;;;;;;28.51;56.87;101389.66;107729;275;120282;-57
2023/09/27 08:51:43;;;;;;;;;;;;;;;28.14;56.86;101392.50;107705;275;104551;-57
2023/09/27 08:54:17;;;;;;;;;;;;;;;27.69;57.13;101393.51;107695;275;114454;-57
2023/09/27 08:56:52;;;;;;;;;;;;;;;27.21;57.29;101386.69;107679;275;93933;-58
2023/09/27 08:59:26;;;;;;;;;;;;;;;26.84;57.85;101387.20;107711;268;97402;-59
2023/09/27 09:02:07;;;;;;;;;;;;;;;26.60;58.61;101386.93;107683;275;119834;-58
2023/09/27 09:04:39;;;;;;;;;;;;;;;26.51;59.11;101383.47;107695;275;105290;-58
2023/09/27 09:07:12;;;;;;;;;;;;;;;26.40;59.39;101384.14;107682;275;112963;-56
2023/09/27 09:09:46;;;;;;;;;;;;;;;26.37;59.46;101384.84;107455;277;93892;-55
2023/09/27 09:12:18;;;;;;;;;;;;;;;26.44;59.92;101379.83;107459;275;96671;-57
2023/09/27 09:14:56;;;;;;;;;;;;;;;26.51;60.32;101379.85;107688;275;120966;-55
2023/09/27 09:17:50;;;;;;;;;;;;;;;27.01;60.55;101382.98;107671;275;108709;-59
2023/09/27 09:20:23;;;;;;;;;;;;;;;27.58;60.12;101382.77;107656;275;114460;-54
2023/09/27 09:23:03;;;;;;;;;;;;;;;28.33;59.14;101378.55;107668;275;93264;-55
2023/09/27 09:25:44;;;;;;;;;;;;;;;28.95;58.54;101373.27;107700;275;96543;-58
2023/09/27 09:28:21;;;;;;;;;;;;;;;29.52;57.88;101377.95;107683;275;120711;-57
2023/09/27 09:30:52;;;;;;;;;;;;;;;30.00;57.08;101380.14;107656;275;105644;-56
2023/09/27 09:33:28;;;;;;;;;;;;;;;30.26;55.89;101375.39;107677;275;113915;-55
2023/09/27 09:36:09;;;;;;;;;;;;;;;30.45;55.79;101374.13;107656;275;94198;-55
2023/09/27 09:38:46;;;;;;;;;;;;;;;30.45;55.08;101374.91;107694;275;96971;-55
2023/09/27 09:41:19;;;;;;;;;;;;;;;30.23;54.35;101376.70;107664;275;120803;-55
2023/09/27 09:43:51;;;;;;;;;;;;;;;29.82;54.11;101377.86;107524;275;104778;-55
2023/09/27 09:46:30;;;;;;;;;;;;;;;29.41;54.21;101377.42;107642;275;114645;-58
2023/09/27 09:49:01;;;;;;;;;;;;;;;28.94;54.42;101380.69;107652;275;94101;-59
2023/09/27 09:51:34;;;;;;;;;;;;;;;28.61;54.67;101382.19;107711;275;97299;-56
2023/09/27 09:54:08;;;;;;;;;;;;;;;28.25;55.00;101382.70;107677;275;120581;-55
2023/09/27 09:56:49;;;;;;;;;;;;;;;28.07;54.85;101381.68;107666;275;105615;-59
2023/09/27 09:59:28;;;;;;;;;;;;;;;27.60;54.85;101382.78;107751;275;113570;-60
2023/09/27 10:02:19;;;;;;;;;;;;;;;27.19;55.08;101380.59;107687;275;93613;-56
2023/09/27 10:04:55;;;;;;;;;;;;;;;26.92;54.95;101378.80;107733;275;96650;-56
2023/09/27 10:07:31;;;;;;;;;;;;;;;26.75;55.19;101381.67;107653;275;119035;-58
2023/09/27 10:10:03;;;;;;;;;;;;;;;26.63;55.38;101381.23;107652;275;104168;-58
2023/09/27 10:12:41;;;;;;;;;;;;;;;26.51;55.96;101378.30;107686;275;112976;-55
2023/09/27 10:15:21;;;;;;;;;;;;;;;26.45;55.98;101376.79;107659;275;94569;-56
2023/09/27 10:18:11;;;;;;;;;;;;;;;26.38;55.88;101377.25;107675;275;97738;-56
2023/09/27 10:21:03;;;;;;;;;;;;;;;26.33;56.33;101376.18;107713;275;121903;-55
2023/09/27 10:23:59;;;;;;;;;;;;;;;26.40;56.96;101381.19;107655;275;104943;-55
2023/09/27 10:26:35;;;;;;;;;;;;;;;26.39;56.88;101377.92;107692;275;114336;-54
2023/09/27 10:29:18;;;;;;;;;;;;;;;26.27;56.92;101378.09;107681;275;95078;-56
2023/09/27 10:32:24;;;;;;;;;;;;;;;26.29;57.58;101378.44;107702;275;97570;-54
2023/09/27 10:35:15;;;;;;;;;;;;;;;26.38;57.39;101373.87;107605;275;120213;-55
2023/09/27 10:38:04;;;;;;;;;;;;;;;26.46;57.39;101365.88;107666;275;105702;-59
2023/09/27 10:40:43;;;;;;;;;;;;;;;26.49;57.08;101366.81;107699;275;114217;-54
2023/09/27 10:43:42;;;;;;;;;;;;;;;26.45;56.64;101362.15;107619;275;95341;-53
2023/09/27 10:46:19;;;;;;;;;;;;;;;26.42;56.25;101366.52;107690;275;97733;-58
2023/09/27 10:48:55;;;;;;;;;;;;;;;26.43;56.54;101362.58;107651;275;121410;-57
2023/09/27 10:51:27;;;;;;;;;;;;;;;26.47;56.86;101364.05;107745;275;104340;-59
2023/09/27 10:54:08;;;;;;;;;;;;;;;26.47;56.71;101362.94;107535;275;114858;-59
2023/09/27 10:56:45;;;;;;;;;;;;;;;26.32;56.36;101359.31;107711;275;94901;-58
2023/09/27 10:59:22;;;;;;;;;;;;;;;26.27;56.43;101358.82;107662;275;97115;-59
2023/09/27 11:01:56;;;;;;;;;;;;;;;26.23;56.25;101359.06;107693;275;118583;-55
2023/09/27 11:04:27;;;;;;;;;;;;;;;26.22;56.28;101356.28;107665;275;105760;-54
2023/09/27 11:07:02;;;;;;;;;;;;;;;26.25;56.43;101355.75;107697;275;115030;-57
2023/09/27 11:09:44;;;;;;;;;;;;;;;26.27;56.13;101355.76;107634;275;93037;-58
2023/09/27 11:12:23;;;;;;;;;;;;;;;26.23;56.25;101352.80;107709;275;96490;-56
2023/09/27 11:14:59;;;;;;;;;;;;;;;26.21;56.01;101349.58;107678;275;120581;-54
2023/09/27 11:17:35;;;;;;;;;;;;;;;26.18;55.52;101348.63;107717;275;105029;-54
2023/09/27 11:20:15;;;;;;;;;;;;;;;26.22;55.72;101342.55;107705;275;113538;-55
2023/09/27 11:22:58;;;;;;;;;;;;;;;26.28;55.76;101337.14;107733;275;95238;-55
2023/09/27 11:25:32;;;;;;;;;;;;;;;26.26;55.30;101332.64;107769;275;97579;-55
2023/09/27 11:28:04;;;;;;;;;;;;;;;26.23;54.73;101329.03;107664;275;119692;-56
2023/09/27 11:30:40;;;;;;;;;;;;;;;26.19;54.66;101327.96;107734;275;104805;-56
2023/09/27 11:33:19;;;;;;;;;;;;;;;26.13;54.58;101329.62;107686;275;113464;-55
2023/09/27 11:35:57;;;;;;;;;;;;;;;26.07;54.71;101328.25;107734;275;94642;-56
2023/09/27 11:38:32;;;;;;;;;;;;;;;26.04;54.61;101325.19;107706;275;98061;-55
2023/09/27 11:41:07;;;;;;;;;;;;;;;26.00;54.52;101323.52;107642;275;120736;-55
2023/09/27 11:43:40;;;;;;;;;;;;;;;26.02;54.35;101320.14;107684;275;105369;-54
2023/09/27 11:46:12;;;;;;;;;;;;;;;25.99;54.01;101318.13;107673;275;113401;-60
2023/09/27 11:48:43;;;;;;;;;;;;;;;26.01;54.26;101321.30;107752;275;94238;-59
2023/09/27 11:51:14;;;;;;;;;;;;;;;25.99;54.09;101318.92;107781;275;96286;-57
2023/09/27 11:53:48;;;;;;;;;;;;;;;25.97;53.87;101318.23;107687;275;119906;-56
2023/09/27 11:56:18;;;;;;;;;;;;;;;25.96;54.31;101316.34;107691;275;104044;-56
2023/09/27 11:58:51;;;;;;;;;;;;;;;25.97;54.24;101315.63;107018;275;597372;-56
2023/09/27 12:01:28;;;;;;;;;;;;;;;25.97;54.55;101314.41;107661;275;94095;-54
2023/09/27 12:04:02;;;;;;;;;;;;;;;25.99;54.55;101317.30;107659;275;98451;-55
2023/09/27 12:06:35;;;;;;;;;;;;;;;26.01;54.73;101318.14;107668;275;120340;-57
2023/09/27 12:09:09;;;;;;;;;;;;;;;26.04;54.76;101312.67;107666;275;105332;-58
2023/09/27 12:11:42;;;;;;;;;;;;;;;26.05;54.72;101311.45;107646;275;113670;-56
2023/09/27 12:14:13;;;;;;;;;;;;;;;26.06;54.74;101310.91;107648;275;93433;-56
2023/09/27 12:16:46;;;;;;;;;;;;;;;26.06;54.49;101299.66;107705;275;98308;-59
2023/09/27 12:19:19;;;;;;;;;;;;;;;26.04;54.29;101296.39;107674;275;120563;-58
2023/09/27 12:21:54;;;;;;;;;;;;;;;26.00;54.17;101295.15;107632;275;105503;-58
2023/09/27 12:24:30;;;;;;;;;;;;;;;26.00;54.39;101291.11;107712;275;114063;-56
2023/09/27 12:27:07;;;;;;;;;;;;;;;26.01;54.48;101288.14;107641;275;94469;-55
2023/09/27 12:29:40;;;;;;;;;;;;;;;26.00;54.31;101281.75;107666;275;98372;-56
2023/09/27 12:32:18;;;;;;;;;;;;;;;25.96;54.21;101279.79;107734;275;120636;-53
2023/09/27 12:34:56;;;;;;;;;;;;;;;25.95;53.84;101278.86;107666;275;106048;-55
2023/09/27 12:37:35;;;;;;;;;;;;;;;25.93;53.81;101278.55;107679;275;114414;-55
2023/09/27 12:40:10;;;;;;;;;;;;;;;25.93;53.69;101270.08;107676;275;94199;-59
2023/09/27 12:42:44;;;;;;;;;;;;;;;25.90;54.09;101272.02;107735;275;97626;-59
2023/09/27 12:45:17;;;;;;;;;;;;;;;25.90;54.07;101269.07;107670;275;121504;-59
2023/09/27 12:47:50;;;;;;;;;;;;;;;25.90;53.93;101266.96;107678;275;103445;-60
2023/09/27 12:50:26;;;;;;;;;;;;;;;25.88;54.04;101260.73;107675;275;114120;-57
2023/09/27 12:53:03;;;;;;;;;;;;;;;25.90;54.34;101262.70;107718;275;92499;-57
2023/09/27 12:55:33;;;;;;;;;;;;;;;25.89;54.27;101259.20;107708;275;97593;-55
2023/09/27 12:58:08;;;;;;;;;;;;;;;25.87;54.45;101256.38;107713;275;119440;-55
2023/09/27 13:00:49;;;;;;;;;;;;;;;25.86;54.38;101251.66;107696;275;105007;-56
2023/09/27 13:03:27;;;;;;;;;;;;;;;25.83;53.68;101253.37;107658;275;112534;-54
2023/09/27 13:06:06;;;;;;;;;;;;;;;25.79;53.47;101249.47;107679;275;93908;-53
2023/09/27 13:08:45;;;;;;;;;;;;;;;25.74;53.04;101245.02;107689;275;96249;-53
2023/09/27 13:11:24;;;;;;;;;;;;;;;25.70;52.54;101241.85;107785;275;120149;-59
2023/09/27 13:14:01;;;;;;;;;;;;;;;25.68;52.45;101241.66;107688;275;105273;-57
2023/09/27 13:16:37;;;;;;;;;;;;;;;25.65;52.48;101232.13;107666;275;114250;-59